Acacia, Philippines

5:16 PM +08 on June 23, 2017 (GMT +0800)
The North Grove | | Change Station

Elev 125 ft 15.51 °N, 120.96 °E | Updated 30 seconds ago

Rain
Rain
91.4 °F
Feels Like 105 °F
N
5.4
Wind Variable Wind from WSW
Gusts 6.3 mph

Today
High -- | Low -- °F
--% Chance of Precip.
Yesterday
High -- | Low -- °F
Precip. -- in
Pressure 29.77 in
Visibility 6.2 miles
Clouds Scattered Clouds 2000 ft
Mostly Cloudy 30000 ft
Heat Index 105 °F
Dew Point 77 °F
Humidity 63%
Rainfall 0.00 in
Snow Depth Not available.
5:26 AM 6:29 PM
Waning Crescent, 1% visible
METAR RPLC 230900Z 16004KT 9999 SCT020 BKN300 31/24 Q1008 NOSIG RMK A2977
Pressure 29.77 in
Visibility 6.2 miles
Clouds Scattered Clouds 2000 ft
Mostly Cloudy 30000 ft
Heat Index 105 °F
Dew Point 77 °F
Humidity 63%
Rainfall 0.00 in
Snow Depth Not available.
5:26 AM 6:29 PM
Waning Crescent, 1% visible
METAR RPLC 230900Z 16004KT 9999 SCT020 BKN300 31/24 Q1008 NOSIG RMK A2977

Get Severe Weather Alerts

Thanks for signing up!

Be on the lookout for a verification email in your inbox.

You'll start receiving the daily forecast at 6 AM.

×

10-Day Weather Forecast

No radar image for this location.
×

Almanac

Astronomy

Jun. 23, 2017 Rise Set
Actual Time
Civil Twilight
Nautical Twilight
Astronomical Twilight
Moon
Length of Visible Light
Length of Day
Tomorrow will be .
, % of the Moon is Illuminated

Today's Extremes

Country Highs Country Lows

Community

WunderPhotos

Category 6

Welcome to Category 6. This is the collective home for Weather Underground's featured writeups by Dr. Jeff Masters (right), Bob Henson (left), Chris Burt, and other regular contributors.

Nearby

Air Quality

  Air Quality AQ Index Pollutant
Not available.

Snow Depth

Station Depth Elevation

Earthquake Activity

City Distance Mag. Time & Date
Minimum magnitude displayed is 2.5.

Coastal Water Temperatures

Place Temperature

Stations

Nearby Weather Stations

Station Location Temp. Windchill Dew Point Humidity Wind Precip. Elev Updated Type